createdAt,value
2023-04-25T00:02:04.868Z,94.18
2023-04-25T00:04:34.255Z,94.41
2023-04-25T00:07:03.658Z,94.15
2023-04-25T00:09:31.358Z,94.30
2023-04-25T00:11:58.827Z,93.53
2023-04-25T00:14:26.265Z,93.27
2023-04-25T00:16:54.764Z,94.11
2023-04-25T00:19:22.216Z,93.44
2023-04-25T00:21:50.006Z,93.44
2023-04-25T00:24:18.879Z,93.72
2023-04-25T00:26:46.337Z,92.24
2023-04-25T00:29:13.770Z,91.61
2023-04-25T00:31:41.328Z,92.44
2023-04-25T00:34:09.198Z,92.71
2023-04-25T00:36:37.178Z,92.82
2023-04-25T00:39:05.527Z,92.78
2023-04-25T00:41:34.732Z,93.36
2023-04-25T00:44:02.833Z,92.74
2023-04-25T00:46:30.621Z,92.68
2023-04-25T00:48:58.109Z,93.25
2023-04-25T00:51:26.540Z,91.96
2023-04-25T00:53:54.217Z,93.19
2023-04-25T00:56:22.207Z,92.70
2023-04-25T00:58:51.862Z,92.56
2023-04-25T01:01:19.634Z,92.46
2023-04-25T01:03:48.486Z,91.33
2023-04-25T01:06:16.073Z,91.98
2023-04-25T01:08:43.683Z,91.88
2023-04-25T01:11:11.170Z,91.83
2023-04-25T01:13:38.619Z,91.97
2023-04-25T01:16:07.935Z,91.88
2023-04-25T01:18:35.503Z,92.87
2023-04-25T01:21:10.870Z,94.35
2023-04-25T01:23:38.525Z,94.72
2023-04-25T01:26:06.317Z,94.63
2023-04-25T01:28:35.402Z,93.48
2023-04-25T01:31:03.416Z,92.05
2023-04-25T01:33:31.146Z,93.38
2023-04-25T01:35:58.616Z,93.37
2023-04-25T01:38:27.424Z,94.02
2023-04-25T01:40:55.757Z,93.62
2023-04-25T01:43:23.628Z,94.20
2023-04-25T01:45:52.370Z,94.41
2023-04-25T01:48:20.031Z,94.88
2023-04-25T01:50:47.730Z,94.56
2023-04-25T01:53:16.221Z,95.17
2023-04-25T01:55:45.166Z,94.79
2023-04-25T01:58:13.867Z,95.27
2023-04-25T02:00:41.874Z,95.29
2023-04-25T02:03:10.095Z,94.01
2023-04-25T02:05:38.434Z,94.66
2023-04-25T02:08:07.353Z,95.21
2023-04-25T02:10:34.904Z,96.04
2023-04-25T02:13:03.933Z,95.90
2023-04-25T02:15:31.443Z,95.49
2023-04-25T02:18:00.973Z,95.76
2023-04-25T02:20:29.526Z,95.03
2023-04-25T02:22:56.992Z,94.54
2023-04-25T02:25:24.864Z,95.49
2023-04-25T02:27:52.475Z,95.33
2023-04-25T02:30:21.356Z,95.51
2023-04-25T02:32:48.933Z,95.16
2023-04-25T02:35:16.691Z,95.21
2023-04-25T02:37:44.278Z,95.39
2023-04-25T02:40:12.225Z,95.37
2023-04-25T02:42:39.674Z,94.77
2023-04-25T02:45:07.915Z,94.32
2023-04-25T02:47:36.757Z,94.06
2023-04-25T02:50:04.849Z,94.16
2023-04-25T02:52:32.368Z,93.72
2023-04-25T02:54:59.845Z,92.19
2023-04-25T02:57:27.339Z,92.82
2023-04-25T02:59:54.774Z,91.46
2023-04-25T03:02:22.286Z,90.97
2023-04-25T03:04:51.168Z,89.42
2023-04-25T03:07:18.632Z,90.54
2023-04-25T03:09:46.090Z,90.37
2023-04-25T03:12:13.547Z,92.08
2023-04-25T03:14:41.015Z,92.94
2023-04-25T03:17:08.489Z,93.56
2023-04-25T03:19:35.910Z,93.11
2023-04-25T03:22:04.737Z,92.43
2023-04-25T03:24:32.251Z,92.19
2023-04-25T03:26:59.706Z,90.96
2023-04-25T03:29:28.577Z,91.95
2023-04-25T03:31:56.138Z,90.81
2023-04-25T03:34:24.872Z,90.22
2023-04-25T03:36:52.410Z,90.01
2023-04-25T03:39:21.209Z,89.17
2023-04-25T03:41:48.693Z,85.79
2023-04-25T03:44:16.341Z,87.21
2023-04-25T03:46:43.810Z,87.60
2023-04-25T03:49:11.290Z,86.37
2023-04-25T03:51:38.730Z,85.67
2023-04-25T03:54:06.246Z,86.63
2023-04-25T03:56:35.066Z,85.99
2023-04-25T03:59:02.518Z,85.99
2023-04-25T04:01:30.183Z,86.47
2023-04-25T04:03:57.955Z,86.93
2023-04-25T04:06:26.427Z,86.51
2023-04-25T04:08:53.930Z,85.35
2023-04-25T04:11:21.475Z,86.67
2023-04-25T04:13:50.487Z,85.83
2023-04-25T04:16:18.169Z,85.12
2023-04-25T04:18:46.687Z,86.01
2023-04-25T04:21:14.161Z,86.50
2023-04-25T04:23:41.767Z,86.01
2023-04-25T04:26:09.528Z,85.67
2023-04-25T04:28:37.063Z,86.56
2023-04-25T04:31:05.942Z,86.35
2023-04-25T04:33:33.477Z,85.78
2023-04-25T04:36:01.814Z,86.38
2023-04-25T04:38:29.370Z,85.04
2023-04-25T04:40:56.926Z,84.75
2023-04-25T04:43:25.082Z,86.14
2023-04-25T04:45:53.231Z,84.44
2023-04-25T04:48:22.224Z,85.60
2023-04-25T04:50:49.691Z,85.15
2023-04-25T04:53:17.146Z,83.95
2023-04-25T04:55:44.653Z,84.52
2023-04-25T04:58:12.148Z,83.40
2023-04-25T05:00:39.589Z,83.57
2023-04-25T05:03:07.474Z,82.39
2023-04-25T05:05:36.418Z,83.71
2023-04-25T05:08:03.905Z,81.40
2023-04-25T05:10:31.371Z,82.18
2023-04-25T05:12:58.827Z,82.19
2023-04-25T05:15:26.457Z,82.06
2023-04-25T05:17:54.064Z,78.25
2023-04-25T05:20:21.584Z,78.66
2023-04-25T05:22:50.379Z,80.17
2023-04-25T05:25:18.047Z,80.04
2023-04-25T05:27:45.550Z,81.97
2023-04-25T05:30:13.413Z,81.26
2023-04-25T05:32:41.414Z,79.78
2023-04-25T05:35:09.915Z,78.43
2023-04-25T05:37:37.514Z,77.58
2023-04-25T05:40:08.480Z,77.56
2023-04-25T05:42:36.008Z,79.50
2023-04-25T05:45:05.391Z,77.80
2023-04-25T05:47:32.873Z,78.74
2023-04-25T05:50:00.317Z,80.84
2023-04-25T05:52:27.820Z,78.76
2023-04-25T05:54:55.334Z,77.42
2023-04-25T05:57:27.125Z,78.45
2023-04-25T05:59:54.823Z,80.29
2023-04-25T06:02:22.805Z,80.64
2023-04-25T06:04:52.172Z,76.15
2023-04-25T06:07:20.082Z,76.24
2023-04-25T06:09:47.904Z,73.70
2023-04-25T06:12:15.459Z,74.28
2023-04-25T06:14:44.294Z,75.50
2023-04-25T06:17:11.735Z,75.45
2023-04-25T06:19:39.208Z,74.89
2023-04-25T06:22:08.154Z,75.17
2023-04-25T06:24:35.672Z,74.15
2023-04-25T06:27:03.595Z,74.95
2023-04-25T06:29:31.038Z,75.33
2023-04-25T06:31:59.822Z,72.99
2023-04-25T06:34:27.272Z,71.65
2023-04-25T06:36:54.792Z,72.03
2023-04-25T06:39:24.163Z,72.19
2023-04-25T06:41:51.667Z,72.59
2023-04-25T06:44:19.106Z,71.69
2023-04-25T06:46:46.779Z,73.87
2023-04-25T06:49:15.600Z,74.52
2023-04-25T06:51:43.215Z,73.05
2023-04-25T06:54:10.705Z,71.25
2023-04-25T06:56:38.193Z,69.29
2023-04-25T06:59:05.651Z,71.21
2023-04-25T07:01:33.088Z,71.55
2023-04-25T07:04:00.727Z,69.83
2023-04-25T07:06:29.906Z,71.02
2023-04-25T07:08:57.357Z,72.13
2023-04-25T07:11:24.921Z,69.71
2023-04-25T07:13:52.402Z,71.81
2023-04-25T07:16:19.876Z,71.74
2023-04-25T07:18:47.327Z,71.83
2023-04-25T07:21:14.762Z,73.03
2023-04-25T07:23:43.603Z,71.67
2023-04-25T07:26:11.066Z,73.71
2023-04-25T07:28:38.562Z,73.53
2023-04-25T07:31:06.098Z,71.90
2023-04-25T07:33:33.555Z,71.19
2023-04-25T07:36:01.149Z,71.75
2023-04-25T07:38:28.781Z,71.42
2023-04-25T07:40:57.599Z,70.10
2023-04-25T07:43:25.265Z,70.62
2023-04-25T07:45:52.786Z,70.50
2023-04-25T07:48:20.756Z,68.81
2023-04-25T07:50:48.315Z,68.43
2023-04-25T07:53:16.715Z,67.72
2023-04-25T07:55:44.162Z,67.31
2023-04-25T07:58:13.657Z,66.88
2023-04-25T08:00:42.500Z,67.55
2023-04-25T08:03:11.796Z,67.44
2023-04-25T08:05:39.574Z,63.86
2023-04-25T08:08:07.718Z,64.44
2023-04-25T08:10:35.211Z,62.80
2023-04-25T08:13:03.387Z,62.80
2023-04-25T08:15:32.405Z,62.58
2023-04-25T08:18:00.484Z,64.20
2023-04-25T08:20:28.017Z,64.08
2023-04-25T08:22:55.532Z,64.54
2023-04-25T08:25:22.982Z,63.29
2023-04-25T08:27:50.447Z,62.10
2023-04-25T08:30:17.889Z,59.47
2023-04-25T08:32:46.734Z,58.75
2023-04-25T08:35:14.197Z,58.93
2023-04-25T08:37:42.311Z,59.99
2023-04-25T08:40:14.063Z,58.76
2023-04-25T08:42:43.070Z,58.84
2023-04-25T08:45:11.305Z,59.19
2023-04-25T08:47:40.584Z,60.53
2023-04-25T08:50:09.840Z,58.69
2023-04-25T08:52:39.430Z,59.88
2023-04-25T08:55:09.332Z,62.29
2023-04-25T08:57:37.290Z,60.99
2023-04-25T09:00:06.791Z,60.47
2023-04-25T09:02:34.573Z,57.96
2023-04-25T09:05:02.217Z,58.18
2023-04-25T09:07:31.048Z,57.92
2023-04-25T09:10:00.620Z,59.42
2023-04-25T09:12:29.010Z,56.79
2023-04-25T09:15:05.204Z,57.35
2023-04-25T09:17:32.748Z,59.99
2023-04-25T09:20:08.270Z,58.08
2023-04-25T09:22:38.347Z,59.07
2023-04-25T09:25:10.142Z,60.10
2023-04-25T09:27:37.726Z,61.16
2023-04-25T09:30:06.184Z,61.10
2023-04-25T09:32:33.753Z,59.10
2023-04-25T09:35:01.545Z,57.83
2023-04-25T09:37:30.564Z,57.46
2023-04-25T09:40:03.567Z,58.05
2023-04-25T09:42:32.724Z,57.62
2023-04-25T09:45:02.747Z,57.20
2023-04-25T09:47:30.372Z,57.73
2023-04-25T09:49:57.912Z,56.92
2023-04-25T09:52:26.768Z,55.14
2023-04-25T09:54:54.680Z,54.77
2023-04-25T09:57:24.644Z,54.12
2023-04-25T09:59:53.950Z,54.01
2023-04-25T10:02:25.993Z,54.42
2023-04-25T10:04:55.996Z,53.55
2023-04-25T10:07:26.782Z,51.62
2023-04-25T10:09:57.170Z,51.66
2023-04-25T10:12:25.971Z,54.58
2023-04-25T10:14:54.738Z,51.95
2023-04-25T10:17:22.895Z,53.52
2023-04-25T10:19:51.104Z,53.12
2023-04-25T10:22:20.767Z,54.16
2023-04-25T10:24:48.531Z,51.06
2023-04-25T10:27:16.437Z,51.10
2023-04-25T10:29:45.380Z,49.77
2023-04-25T10:32:12.846Z,50.88
2023-04-25T10:34:41.932Z,51.67
2023-04-25T10:37:12.602Z,54.09
2023-04-25T10:39:41.236Z,53.96
2023-04-25T10:42:09.601Z,51.16
2023-04-25T10:44:39.537Z,51.43
2023-04-25T10:47:09.331Z,51.84
2023-04-25T10:49:38.369Z,54.07
2023-04-25T10:52:14.903Z,52.22
2023-04-25T10:54:44.012Z,50.90
2023-04-25T10:57:30.601Z,51.82
2023-04-25T11:00:01.805Z,50.42
2023-04-25T11:02:31.705Z,50.58
2023-04-25T11:04:59.266Z,49.92
2023-04-25T11:07:33.995Z,53.04
2023-04-25T11:10:03.923Z,50.73
2023-04-25T11:12:32.116Z,50.77
2023-04-25T11:15:03.777Z,51.13
2023-04-25T11:17:32.736Z,51.43
2023-04-25T11:20:00.280Z,52.35
2023-04-25T11:22:28.958Z,52.07
2023-04-25T11:24:56.464Z,53.88
2023-04-25T11:27:25.670Z,52.70
2023-04-25T11:29:53.116Z,52.58
2023-04-25T11:32:23.283Z,53.53
2023-04-25T11:34:54.490Z,51.08
2023-04-25T11:37:22.054Z,50.83
2023-04-25T11:39:49.917Z,50.42
2023-04-25T11:42:17.624Z,50.30
2023-04-25T11:44:45.504Z,49.99
2023-04-25T11:47:13.013Z,50.72
2023-04-25T11:49:40.695Z,49.71
2023-04-25T11:52:09.672Z,51.39
2023-04-25T11:54:38.048Z,50.91
2023-04-25T11:57:05.878Z,52.65
2023-04-25T11:59:33.398Z,47.68
2023-04-25T12:02:10.582Z,47.69
2023-04-25T12:04:39.297Z,48.45
2023-04-25T12:07:06.935Z,47.89
2023-04-25T12:09:35.799Z,49.07
2023-04-25T12:12:04.622Z,47.51
2023-04-25T12:14:33.489Z,48.35
2023-04-25T12:17:01.872Z,47.63
2023-04-25T12:19:34.823Z,48.32
2023-04-25T12:22:03.916Z,48.07
2023-04-25T12:24:31.905Z,47.30
2023-04-25T12:27:03.827Z,48.61
2023-04-25T12:29:41.978Z,47.17
2023-04-25T12:32:16.613Z,48.04
2023-04-25T12:34:44.238Z,48.25
2023-04-25T12:37:12.301Z,50.21
2023-04-25T12:39:40.085Z,48.83
2023-04-25T12:42:12.388Z,50.76
2023-04-25T12:44:39.932Z,50.15
2023-04-25T12:47:07.629Z,49.16
2023-04-25T12:49:35.211Z,50.03
2023-04-25T12:52:02.759Z,48.51
2023-04-25T12:54:30.713Z,48.55
2023-04-25T12:56:58.420Z,47.82
2023-04-25T12:59:27.708Z,48.46
2023-04-25T13:01:55.230Z,48.64
2023-04-25T13:04:22.918Z,48.95
2023-04-25T13:06:50.515Z,48.05
2023-04-25T13:09:17.963Z,48.44
2023-04-25T13:11:46.037Z,48.68
2023-04-25T13:14:13.564Z,47.45
2023-04-25T13:16:42.686Z,48.33
2023-04-25T13:19:12.343Z,47.15
2023-04-25T13:21:40.152Z,46.88
2023-04-25T13:24:08.244Z,49.35
2023-04-25T13:26:35.762Z,46.83
2023-04-25T13:29:04.527Z,47.46
2023-04-25T13:31:33.125Z,46.88
2023-04-25T13:34:01.963Z,47.15
2023-04-25T13:36:29.859Z,46.51
2023-04-25T13:38:57.303Z,48.61
2023-04-25T13:41:24.746Z,46.38
2023-04-25T13:43:53.189Z,47.01
2023-04-25T13:46:40.800Z,46.18
2023-04-25T13:49:13.126Z,47.00
2023-04-25T13:51:40.883Z,48.91
2023-04-25T13:54:08.530Z,48.81
2023-04-25T13:56:36.236Z,46.85
2023-04-25T13:59:03.818Z,47.38
2023-04-25T14:01:32.046Z,45.53
2023-04-25T14:03:59.625Z,45.70
2023-04-25T14:06:29.256Z,46.19
2023-04-25T14:08:57.319Z,45.52
2023-04-25T14:11:24.773Z,44.11
2023-04-25T14:13:52.604Z,45.52
2023-04-25T14:16:20.557Z,43.18
2023-04-25T14:18:48.051Z,43.13
2023-04-25T14:21:15.610Z,43.79
2023-04-25T14:23:44.391Z,42.71
2023-04-25T14:26:13.506Z,43.53
2023-04-25T14:28:41.164Z,42.73
2023-04-25T14:31:08.716Z,44.06
2023-04-25T14:33:36.300Z,42.37
2023-04-25T14:36:04.099Z,43.55
2023-04-25T14:38:31.579Z,43.94
2023-04-25T14:41:00.635Z,44.79
2023-04-25T14:43:28.130Z,44.90
2023-04-25T14:45:58.243Z,45.27
2023-04-25T14:48:26.380Z,45.53
2023-04-25T14:50:53.924Z,46.10
2023-04-25T14:53:21.447Z,45.94
2023-04-25T14:55:49.680Z,46.77
2023-04-25T14:58:18.576Z,45.15
2023-04-25T15:00:46.437Z,46.24
2023-04-25T15:03:14.503Z,46.01
2023-04-25T15:05:42.555Z,44.52
2023-04-25T15:08:11.262Z,45.62
2023-04-25T15:10:38.943Z,46.73
2023-04-25T15:13:06.508Z,46.95
2023-04-25T15:15:35.639Z,47.36
2023-04-25T15:18:03.133Z,45.77
2023-04-25T15:20:30.615Z,47.14
2023-04-25T15:22:58.442Z,45.89
2023-04-25T15:25:26.268Z,46.97
2023-04-25T15:27:54.438Z,47.70
2023-04-25T15:30:22.055Z,47.68
2023-04-25T15:32:51.113Z,47.14
2023-04-25T15:35:18.600Z,47.83
2023-04-25T15:37:46.200Z,46.74
2023-04-25T15:40:17.496Z,46.67
2023-04-25T15:42:47.742Z,45.66
2023-04-25T15:45:17.575Z,46.02
2023-04-25T15:47:45.879Z,48.81
2023-04-25T15:50:15.899Z,45.17
2023-04-25T15:52:43.820Z,43.80
2023-04-25T15:55:12.794Z,43.80
2023-04-25T15:57:41.864Z,43.27
2023-04-25T16:00:13.003Z,42.77
2023-04-25T16:02:41.483Z,42.04
2023-04-25T16:05:11.097Z,42.55
2023-04-25T16:07:40.855Z,42.81
2023-04-25T16:10:09.446Z,42.83
2023-04-25T16:12:37.444Z,43.26
2023-04-25T16:15:05.282Z,43.49
2023-04-25T16:17:33.306Z,43.77
2023-04-25T16:20:01.817Z,43.78
2023-04-25T16:22:29.424Z,44.26
2023-04-25T16:24:58.209Z,44.25
2023-04-25T16:27:25.710Z,44.51
2023-04-25T16:29:53.154Z,44.45
2023-04-25T16:32:20.712Z,43.64
2023-04-25T16:34:48.160Z,45.35
2023-04-25T16:37:15.615Z,45.27
2023-04-25T16:39:43.088Z,44.73
2023-04-25T16:42:11.921Z,45.97
2023-04-25T16:44:39.389Z,45.09
2023-04-25T16:47:06.896Z,44.81
2023-04-25T16:49:34.518Z,46.03
2023-04-25T16:52:02.031Z,44.95
2023-04-25T16:54:29.468Z,46.62
2023-04-25T16:56:56.902Z,47.05
2023-04-25T16:59:25.675Z,46.46
2023-04-25T17:01:53.235Z,46.11
2023-04-25T17:04:20.860Z,46.51
2023-04-25T17:06:48.572Z,45.96
2023-04-25T17:09:16.056Z,46.71
2023-04-25T17:11:43.654Z,45.53
2023-04-25T17:14:11.101Z,46.42
2023-04-25T17:16:40.562Z,44.81
2023-04-25T17:19:08.506Z,45.12
2023-04-25T17:21:36.009Z,45.50
2023-04-25T17:24:06.002Z,46.21
2023-04-25T17:26:33.511Z,45.93
2023-04-25T17:29:00.960Z,44.30
2023-04-25T17:31:28.574Z,44.64
2023-04-25T17:33:57.590Z,44.86
2023-04-25T17:36:25.171Z,45.09
2023-04-25T17:38:52.908Z,44.30
2023-04-25T17:41:20.930Z,45.94
2023-04-25T17:43:48.408Z,44.98
2023-04-25T17:46:15.951Z,45.58
2023-04-25T17:48:43.438Z,47.27
2023-04-25T17:51:12.250Z,46.25
2023-04-25T17:53:39.671Z,46.56
2023-04-25T17:56:19.391Z,46.94
2023-04-25T17:58:54.116Z,47.56
2023-04-25T18:01:22.070Z,47.71
2023-04-25T18:03:50.310Z,47.72
2023-04-25T18:06:19.482Z,46.36
2023-04-25T18:08:47.283Z,47.70
2023-04-25T18:11:15.082Z,46.95
2023-04-25T18:13:43.111Z,46.50
2023-04-25T18:16:10.756Z,47.98
2023-04-25T18:18:38.197Z,48.60
2023-04-25T18:21:07.727Z,47.40
2023-04-25T18:23:37.738Z,48.37
2023-04-25T18:26:06.028Z,47.97
2023-04-25T18:28:34.240Z,48.11
2023-04-25T18:31:02.002Z,49.61
2023-04-25T18:33:29.505Z,48.76
2023-04-25T18:35:59.815Z,49.63
2023-04-25T18:41:14.975Z,49.44
2023-04-25T18:43:46.873Z,49.31
2023-04-25T18:46:14.360Z,49.72
2023-04-25T18:48:42.834Z,49.23
2023-04-25T18:51:10.549Z,50.16
2023-04-25T18:53:38.286Z,50.38
2023-04-25T18:56:07.452Z,50.72
2023-04-25T18:58:34.935Z,49.90
2023-04-25T19:01:03.656Z,50.41
2023-04-25T19:03:31.550Z,50.57
2023-04-25T19:05:59.237Z,49.48
2023-04-25T19:08:27.476Z,50.70
2023-04-25T19:10:55.397Z,50.77
2023-04-25T19:13:24.390Z,50.56
2023-04-25T19:15:51.858Z,52.02
2023-04-25T19:18:19.460Z,50.91
2023-04-25T19:20:47.175Z,50.86
2023-04-25T19:23:14.670Z,52.31
2023-04-25T19:25:42.601Z,52.21
2023-04-25T19:28:12.765Z,51.22
2023-04-25T19:30:41.734Z,51.60
2023-04-25T19:33:09.351Z,52.82
2023-04-25T19:35:36.942Z,51.94
2023-04-25T19:38:04.564Z,52.46
2023-04-25T19:40:32.033Z,52.18
2023-04-25T19:42:59.578Z,53.11
2023-04-25T19:45:27.106Z,52.24
2023-04-25T19:47:56.031Z,53.17
2023-04-25T19:50:23.700Z,52.90
2023-04-25T19:52:51.966Z,54.14
2023-04-25T19:55:19.526Z,53.69
2023-04-25T19:57:47.474Z,55.37
2023-04-25T20:00:19.223Z,54.39
2023-04-25T20:02:47.799Z,53.63
2023-04-25T20:05:17.776Z,54.63
2023-04-25T20:07:45.478Z,56.90
2023-04-25T20:10:13.992Z,55.04
2023-04-25T20:12:41.544Z,57.43
2023-04-25T20:15:09.715Z,58.80
2023-04-25T20:17:37.232Z,60.39
2023-04-25T20:20:06.352Z,60.16
2023-04-25T20:22:38.595Z,61.53
2023-04-25T20:25:08.199Z,63.59
2023-04-25T20:27:37.742Z,64.57
2023-04-25T20:30:07.922Z,65.66
2023-04-25T20:32:35.849Z,66.68
2023-04-25T20:35:03.964Z,65.78
2023-04-25T20:37:32.461Z,65.26
2023-04-25T20:40:01.767Z,65.56
2023-04-25T20:42:29.258Z,65.04
2023-04-25T20:44:56.805Z,62.44
2023-04-25T20:47:24.617Z,64.16
2023-04-25T20:49:52.238Z,63.92
2023-04-25T20:52:19.744Z,62.58
2023-04-25T20:54:50.150Z,63.13
2023-04-25T20:57:18.980Z,62.75
2023-04-25T20:59:47.138Z,62.73
2023-04-25T21:02:15.907Z,63.10
2023-04-25T21:04:44.008Z,63.51
2023-04-25T21:07:12.985Z,64.50
2023-04-25T21:09:40.677Z,63.52
2023-04-25T21:12:08.561Z,64.37
2023-04-25T21:14:37.341Z,64.91
2023-04-25T21:17:05.114Z,66.26
2023-04-25T21:19:33.023Z,67.10
2023-04-25T21:22:01.676Z,67.25
2023-04-25T21:24:31.021Z,69.12
2023-04-25T21:26:58.494Z,70.37
2023-04-25T21:29:26.013Z,69.90
2023-04-25T21:31:54.848Z,71.11
2023-04-25T21:34:22.622Z,71.08
2023-04-25T21:36:50.084Z,71.40
2023-04-25T21:39:17.563Z,72.36
2023-04-25T21:41:45.033Z,71.87
2023-04-25T21:44:14.399Z,72.36
2023-04-25T21:46:42.003Z,73.06
2023-04-25T21:49:11.443Z,72.75
2023-04-25T21:51:38.961Z,73.58
2023-04-25T21:54:09.640Z,73.34
2023-04-25T21:56:37.138Z,73.63
2023-04-25T21:59:04.620Z,73.98
2023-04-25T22:01:32.195Z,74.90
2023-04-25T22:04:00.002Z,74.64
2023-04-25T22:06:29.521Z,74.28
2023-04-25T22:08:56.980Z,74.89
2023-04-25T22:11:26.390Z,75.89
2023-04-25T22:13:54.411Z,75.60
2023-04-25T22:16:21.966Z,75.35
2023-04-25T22:18:51.234Z,74.94
2023-04-25T22:21:18.956Z,75.84
2023-04-25T22:23:47.752Z,74.42
2023-04-25T22:26:15.188Z,74.32
2023-04-25T22:28:42.624Z,73.51
2023-04-25T22:31:10.556Z,75.24
2023-04-25T22:33:38.096Z,74.37
2023-04-25T22:36:05.844Z,75.53
2023-04-25T22:38:33.308Z,75.31
2023-04-25T22:41:02.145Z,77.57
2023-04-25T22:43:29.834Z,75.99
2023-04-25T22:45:58.677Z,77.18
2023-04-25T22:48:26.221Z,77.39
2023-04-25T22:51:02.510Z,79.26
2023-04-25T22:53:31.959Z,78.81
2023-04-25T22:55:59.418Z,78.70
2023-04-25T22:58:28.613Z,79.09
2023-04-25T23:00:56.101Z,78.25
2023-04-25T23:03:23.684Z,77.69
2023-04-25T23:05:51.471Z,76.21
2023-04-25T23:08:19.042Z,77.60
2023-04-25T23:10:46.590Z,77.72
2023-04-25T23:13:14.066Z,78.54
2023-04-25T23:15:42.848Z,79.23
2023-04-25T23:18:10.355Z,80.15
2023-04-25T23:20:37.905Z,80.58
2023-04-25T23:23:05.924Z,80.55
2023-04-25T23:25:33.498Z,80.97
2023-04-25T23:28:00.938Z,80.39
2023-04-25T23:30:28.379Z,81.25
2023-04-25T23:32:57.174Z,81.25
2023-04-25T23:35:24.705Z,81.75
2023-04-25T23:37:52.173Z,81.79
2023-04-25T23:40:19.631Z,81.83
2023-04-25T23:42:47.432Z,80.44
2023-04-25T23:45:16.442Z,80.32
2023-04-25T23:47:44.139Z,81.34
2023-04-25T23:50:13.396Z,82.70
2023-04-25T23:52:40.998Z,83.89
2023-04-25T23:55:09.741Z,84.33
2023-04-25T23:57:37.311Z,84.77
